sensor_id;sensor_type;location;lat;lon;timestamp;temperature;humidity
34137;DHT22;20414;50.860;4.382;2022-10-23T00:02:20;18.70;67.30
34137;DHT22;20414;50.860;4.382;2022-10-23T00:04:50;18.70;67.30
34137;DHT22;20414;50.860;4.382;2022-10-23T00:07:16;18.70;67.30
34137;DHT22;20414;50.860;4.382;2022-10-23T00:09:42;18.70;67.30
34137;DHT22;20414;50.860;4.382;2022-10-23T00:12:08;18.70;67.30
34137;DHT22;20414;50.860;4.382;2022-10-23T00:14:34;18.70;67.30
34137;DHT22;20414;50.860;4.382;2022-10-23T00:17:00;18.70;67.30
34137;DHT22;20414;50.860;4.382;2022-10-23T00:19:26;18.70;67.30
34137;DHT22;20414;50.860;4.382;2022-10-23T00:21:51;18.70;67.30
34137;DHT22;20414;50.860;4.382;2022-10-23T00:24:17;18.70;67.30
34137;DHT22;20414;50.860;4.382;2022-10-23T00:26:43;18.70;67.40
34137;DHT22;20414;50.860;4.382;2022-10-23T00:29:10;18.70;67.30
34137;DHT22;20414;50.860;4.382;2022-10-23T00:31:36;18.70;67.30
34137;DHT22;20414;50.860;4.382;2022-10-23T00:34:02;18.70;67.30
34137;DHT22;20414;50.860;4.382;2022-10-23T00:36:28;18.70;67.30
34137;DHT22;20414;50.860;4.382;2022-10-23T00:38:54;18.70;67.40
34137;DHT22;20414;50.860;4.382;2022-10-23T00:41:23;18.70;68.00
34137;DHT22;20414;50.860;4.382;2022-10-23T00:46:24;18.70;67.30
34137;DHT22;20414;50.860;4.382;2022-10-23T00:48:49;18.70;68.00
34137;DHT22;20414;50.860;4.382;2022-10-23T00:51:16;18.70;67.30
34137;DHT22;20414;50.860;4.382;2022-10-23T00:53:42;18.70;67.40
34137;DHT22;20414;50.860;4.382;2022-10-23T00:56:09;18.70;67.30
34137;DHT22;20414;50.860;4.382;2022-10-23T00:58:35;18.70;67.30
34137;DHT22;20414;50.860;4.382;2022-10-23T01:01:00;18.70;67.30
34137;DHT22;20414;50.860;4.382;2022-10-23T01:03:27;18.70;67.30
34137;DHT22;20414;50.860;4.382;2022-10-23T01:06:01;18.70;67.30
34137;DHT22;20414;50.860;4.382;2022-10-23T01:11:26;18.70;67.30
34137;DHT22;20414;50.860;4.382;2022-10-23T01:14:15;18.70;67.30
34137;DHT22;20414;50.860;4.382;2022-10-23T01:20:00;18.60;67.30
34137;DHT22;20414;50.860;4.382;2022-10-23T01:23:11;18.70;67.40
34137;DHT22;20414;50.860;4.382;2022-10-23T01:28:14;18.70;67.40
34137;DHT22;20414;50.860;4.382;2022-10-23T01:30:43;18.60;67.30
34137;DHT22;20414;50.860;4.382;2022-10-23T01:33:13;18.60;67.30
34137;DHT22;20414;50.860;4.382;2022-10-23T01:35:40;18.70;67.30
34137;DHT22;20414;50.860;4.382;2022-10-23T01:43:26;18.70;67.30
34137;DHT22;20414;50.860;4.382;2022-10-23T01:45:57;18.70;67.30
34137;DHT22;20414;50.860;4.382;2022-10-23T01:48:27;18.70;67.30
34137;DHT22;20414;50.860;4.382;2022-10-23T01:50:55;18.60;67.20
34137;DHT22;20414;50.860;4.382;2022-10-23T01:53:25;18.60;67.20
34137;DHT22;20414;50.860;4.382;2022-10-23T01:55:54;18.60;67.20
34137;DHT22;20414;50.860;4.382;2022-10-23T01:58:20;18.70;67.30
34137;DHT22;20414;50.860;4.382;2022-10-23T02:00:48;18.60;67.20
34137;DHT22;20414;50.860;4.382;2022-10-23T02:03:15;18.60;67.30
34137;DHT22;20414;50.860;4.382;2022-10-23T02:05:42;18.60;67.30
34137;DHT22;20414;50.860;4.382;2022-10-23T02:08:09;18.60;67.20
34137;DHT22;20414;50.860;4.382;2022-10-23T02:10:50;18.60;67.20
34137;DHT22;20414;50.860;4.382;2022-10-23T02:13:32;18.60;67.20
34137;DHT22;20414;50.860;4.382;2022-10-23T02:21:28;18.60;67.20
34137;DHT22;20414;50.860;4.382;2022-10-23T02:26:26;18.60;67.20
34137;DHT22;20414;50.860;4.382;2022-10-23T02:28:59;18.60;67.20
34137;DHT22;20414;50.860;4.382;2022-10-23T02:31:26;18.60;67.20
34137;DHT22;20414;50.860;4.382;2022-10-23T02:33:51;18.60;67.20
34137;DHT22;20414;50.860;4.382;2022-10-23T02:36:18;18.60;67.20
34137;DHT22;20414;50.860;4.382;2022-10-23T02:38:44;18.60;67.20
34137;DHT22;20414;50.860;4.382;2022-10-23T02:41:24;18.60;67.20
34137;DHT22;20414;50.860;4.382;2022-10-23T02:47:06;18.60;67.20
34137;DHT22;20414;50.860;4.382;2022-10-23T02:50:13;18.60;67.20
34137;DHT22;20414;50.860;4.382;2022-10-23T03:01:03;18.60;67.20
34137;DHT22;20414;50.860;4.382;2022-10-23T03:03:37;18.60;67.20
34137;DHT22;20414;50.860;4.382;2022-10-23T03:06:05;18.60;67.90
34137;DHT22;20414;50.860;4.382;2022-10-23T03:08:43;18.60;67.20
34137;DHT22;20414;50.860;4.382;2022-10-23T03:11:10;18.60;67.20
34137;DHT22;20414;50.860;4.382;2022-10-23T03:13:35;18.60;67.20
34137;DHT22;20414;50.860;4.382;2022-10-23T03:16:01;18.60;67.20
34137;DHT22;20414;50.860;4.382;2022-10-23T03:18:27;18.60;67.20
34137;DHT22;20414;50.860;4.382;2022-10-23T03:20:52;18.60;67.20
34137;DHT22;20414;50.860;4.382;2022-10-23T03:23:18;18.60;67.20
34137;DHT22;20414;50.860;4.382;2022-10-23T03:25:44;18.60;67.20
34137;DHT22;20414;50.860;4.382;2022-10-23T03:28:09;18.60;67.20
34137;DHT22;20414;50.860;4.382;2022-10-23T03:30:35;18.60;67.20
34137;DHT22;20414;50.860;4.382;2022-10-23T03:33:01;18.60;67.20
34137;DHT22;20414;50.860;4.382;2022-10-23T03:35:26;18.60;67.20
34137;DHT22;20414;50.860;4.382;2022-10-23T03:37:52;18.60;67.20
34137;DHT22;20414;50.860;4.382;2022-10-23T03:40:17;18.60;67.20
34137;DHT22;20414;50.860;4.382;2022-10-23T03:42:43;18.60;67.20
34137;DHT22;20414;50.860;4.382;2022-10-23T03:45:09;18.60;67.20
34137;DHT22;20414;50.860;4.382;2022-10-23T03:47:35;18.60;67.20
34137;DHT22;20414;50.860;4.382;2022-10-23T03:50:06;18.60;67.20
34137;DHT22;20414;50.860;4.382;2022-10-23T03:52:32;18.60;67.20
34137;DHT22;20414;50.860;4.382;2022-10-23T03:54:57;18.60;67.20
34137;DHT22;20414;50.860;4.382;2022-10-23T03:57:23;18.60;67.20
34137;DHT22;20414;50.860;4.382;2022-10-23T03:59:49;18.60;67.20
34137;DHT22;20414;50.860;4.382;2022-10-23T04:02:14;18.60;67.20
34137;DHT22;20414;50.860;4.382;2022-10-23T04:04:40;18.60;67.20
34137;DHT22;20414;50.860;4.382;2022-10-23T04:07:06;18.60;67.90
34137;DHT22;20414;50.860;4.382;2022-10-23T04:09:31;18.60;67.20
34137;DHT22;20414;50.860;4.382;2022-10-23T04:11:57;18.60;67.20
34137;DHT22;20414;50.860;4.382;2022-10-23T04:14:22;18.60;67.20
34137;DHT22;20414;50.860;4.382;2022-10-23T04:16:48;18.60;67.20
34137;DHT22;20414;50.860;4.382;2022-10-23T04:19:13;18.60;67.90
34137;DHT22;20414;50.860;4.382;2022-10-23T04:21:41;18.60;67.30
34137;DHT22;20414;50.860;4.382;2022-10-23T04:24:07;18.60;67.20
34137;DHT22;20414;50.860;4.382;2022-10-23T04:26:33;18.60;67.30
34137;DHT22;20414;50.860;4.382;2022-10-23T04:28:59;18.60;67.30
34137;DHT22;20414;50.860;4.382;2022-10-23T04:31:24;18.60;67.30
34137;DHT22;20414;50.860;4.382;2022-10-23T04:33:50;18.60;67.20
34137;DHT22;20414;50.860;4.382;2022-10-23T04:36:16;18.60;67.30
34137;DHT22;20414;50.860;4.382;2022-10-23T04:38:41;18.60;67.30
34137;DHT22;20414;50.860;4.382;2022-10-23T04:41:07;18.60;67.30
34137;DHT22;20414;50.860;4.382;2022-10-23T04:43:33;18.60;67.30
34137;DHT22;20414;50.860;4.382;2022-10-23T04:45:58;18.60;67.30
34137;DHT22;20414;50.860;4.382;2022-10-23T04:48:25;18.60;67.40
34137;DHT22;20414;50.860;4.382;2022-10-23T04:50:55;18.60;67.40
34137;DHT22;20414;50.860;4.382;2022-10-23T04:53:23;18.60;67.40
34137;DHT22;20414;50.860;4.382;2022-10-23T04:55:50;18.60;67.40
34137;DHT22;20414;50.860;4.382;2022-10-23T04:58:16;18.60;67.40
34137;DHT22;20414;50.860;4.382;2022-10-23T05:00:41;18.60;67.40
34137;DHT22;20414;50.860;4.382;2022-10-23T05:03:07;18.60;67.40
34137;DHT22;20414;50.860;4.382;2022-10-23T05:05:33;18.60;67.40
34137;DHT22;20414;50.860;4.382;2022-10-23T05:07:58;18.60;67.40
34137;DHT22;20414;50.860;4.382;2022-10-23T05:10:24;18.60;67.40
34137;DHT22;20414;50.860;4.382;2022-10-23T05:12:49;18.60;68.10
34137;DHT22;20414;50.860;4.382;2022-10-23T05:15:15;18.60;67.40
34137;DHT22;20414;50.860;4.382;2022-10-23T05:17:42;18.60;67.40
34137;DHT22;20414;50.860;4.382;2022-10-23T05:20:15;18.60;67.40
34137;DHT22;20414;50.860;4.382;2022-10-23T05:22:43;18.60;67.40
34137;DHT22;20414;50.860;4.382;2022-10-23T05:25:11;18.60;67.40
34137;DHT22;20414;50.860;4.382;2022-10-23T05:27:36;18.60;67.40
34137;DHT22;20414;50.860;4.382;2022-10-23T05:30:03;18.60;67.40
34137;DHT22;20414;50.860;4.382;2022-10-23T05:32:30;18.60;67.50
34137;DHT22;20414;50.860;4.382;2022-10-23T05:34:57;18.60;67.40
34137;DHT22;20414;50.860;4.382;2022-10-23T05:37:23;18.60;67.40
34137;DHT22;20414;50.860;4.382;2022-10-23T05:39:49;18.60;67.40
34137;DHT22;20414;50.860;4.382;2022-10-23T05:42:16;18.60;67.40
34137;DHT22;20414;50.860;4.382;2022-10-23T05:44:41;18.60;67.40
34137;DHT22;20414;50.860;4.382;2022-10-23T05:47:07;18.60;67.40
34137;DHT22;20414;50.860;4.382;2022-10-23T05:49:33;18.60;67.40
34137;DHT22;20414;50.860;4.382;2022-10-23T05:51:58;18.60;67.40
34137;DHT22;20414;50.860;4.382;2022-10-23T05:54:24;18.60;67.40
34137;DHT22;20414;50.860;4.382;2022-10-23T05:56:50;18.60;67.40
34137;DHT22;20414;50.860;4.382;2022-10-23T05:59:16;18.60;67.40
34137;DHT22;20414;50.860;4.382;2022-10-23T06:01:42;18.60;67.40
34137;DHT22;20414;50.860;4.382;2022-10-23T06:04:07;18.60;67.40
34137;DHT22;20414;50.860;4.382;2022-10-23T06:06:33;18.60;67.40
34137;DHT22;20414;50.860;4.382;2022-10-23T06:08:59;18.60;67.40
34137;DHT22;20414;50.860;4.382;2022-10-23T06:11:24;18.60;67.40
34137;DHT22;20414;50.860;4.382;2022-10-23T06:13:50;18.60;67.40
34137;DHT22;20414;50.860;4.382;2022-10-23T06:16:20;18.60;67.40
34137;DHT22;20414;50.860;4.382;2022-10-23T06:18:46;18.60;67.40
34137;DHT22;20414;50.860;4.382;2022-10-23T06:21:13;18.60;67.50
34137;DHT22;20414;50.860;4.382;2022-10-23T06:23:39;18.60;67.50
34137;DHT22;20414;50.860;4.382;2022-10-23T06:26:07;18.60;67.50
34137;DHT22;20414;50.860;4.382;2022-10-23T06:28:33;18.60;67.50
34137;DHT22;20414;50.860;4.382;2022-10-23T06:31:02;18.60;67.60
34137;DHT22;20414;50.860;4.382;2022-10-23T06:33:28;18.60;67.50
34137;DHT22;20414;50.860;4.382;2022-10-23T06:35:55;18.50;67.50
34137;DHT22;20414;50.860;4.382;2022-10-23T06:38:20;18.60;67.60
34137;DHT22;20414;50.860;4.382;2022-10-23T06:40:54;18.60;67.60
34137;DHT22;20414;50.860;4.382;2022-10-23T06:43:20;18.50;67.50
34137;DHT22;20414;50.860;4.382;2022-10-23T06:45:46;18.60;67.60
34137;DHT22;20414;50.860;4.382;2022-10-23T06:48:12;18.50;67.50
34137;DHT22;20414;50.860;4.382;2022-10-23T06:50:38;18.60;67.60
34137;DHT22;20414;50.860;4.382;2022-10-23T06:53:04;18.50;67.50
34137;DHT22;20414;50.860;4.382;2022-10-23T06:55:31;18.50;67.50
34137;DHT22;20414;50.860;4.382;2022-10-23T06:57:57;18.60;67.60
34137;DHT22;20414;50.860;4.382;2022-10-23T07:00:24;18.50;67.50
34137;DHT22;20414;50.860;4.382;2022-10-23T07:02:50;18.60;67.60
34137;DHT22;20414;50.860;4.382;2022-10-23T07:05:16;18.50;67.50
34137;DHT22;20414;50.860;4.382;2022-10-23T07:07:42;18.50;67.60
34137;DHT22;20414;50.860;4.382;2022-10-23T07:10:08;18.50;67.50
34137;DHT22;20414;50.860;4.382;2022-10-23T07:12:33;18.50;67.60
34137;DHT22;20414;50.860;4.382;2022-10-23T07:14:59;18.50;67.60
34137;DHT22;20414;50.860;4.382;2022-10-23T07:17:25;18.50;67.70
34137;DHT22;20414;50.860;4.382;2022-10-23T07:19:50;18.50;67.60
34137;DHT22;20414;50.860;4.382;2022-10-23T07:22:16;18.50;67.70
34137;DHT22;20414;50.860;4.382;2022-10-23T07:24:41;18.50;67.60
34137;DHT22;20414;50.860;4.382;2022-10-23T07:27:07;18.50;67.60
34137;DHT22;20414;50.860;4.382;2022-10-23T07:29:33;18.50;67.70
34137;DHT22;20414;50.860;4.382;2022-10-23T07:31:59;18.50;67.70
34137;DHT22;20414;50.860;4.382;2022-10-23T07:34:26;18.50;67.70
34137;DHT22;20414;50.860;4.382;2022-10-23T07:36:52;18.50;67.70
34137;DHT22;20414;50.860;4.382;2022-10-23T07:39:19;18.50;67.70
34137;DHT22;20414;50.860;4.382;2022-10-23T07:41:47;18.50;67.70
34137;DHT22;20414;50.860;4.382;2022-10-23T07:44:13;18.50;67.70
34137;DHT22;20414;50.860;4.382;2022-10-23T07:46:38;18.50;67.70
34137;DHT22;20414;50.860;4.382;2022-10-23T07:49:04;18.50;67.80
34137;DHT22;20414;50.860;4.382;2022-10-23T07:51:30;18.50;67.70
34137;DHT22;20414;50.860;4.382;2022-10-23T07:53:55;18.50;67.70
34137;DHT22;20414;50.860;4.382;2022-10-23T07:56:23;18.50;67.80
34137;DHT22;20414;50.860;4.382;2022-10-23T07:58:51;18.50;67.70
34137;DHT22;20414;50.860;4.382;2022-10-23T08:01:26;18.50;67.80
34137;DHT22;20414;50.860;4.382;2022-10-23T08:03:53;18.50;67.80
34137;DHT22;20414;50.860;4.382;2022-10-23T08:06:19;18.50;67.80
34137;DHT22;20414;50.860;4.382;2022-10-23T08:08:44;18.50;67.80
34137;DHT22;20414;50.860;4.382;2022-10-23T08:11:13;18.50;67.90
34137;DHT22;20414;50.860;4.382;2022-10-23T08:13:40;18.50;67.90
34137;DHT22;20414;50.860;4.382;2022-10-23T08:16:05;18.50;67.90
34137;DHT22;20414;50.860;4.382;2022-10-23T08:18:32;18.50;67.80
34137;DHT22;20414;50.860;4.382;2022-10-23T08:21:02;18.50;67.80
34137;DHT22;20414;50.860;4.382;2022-10-23T08:23:29;18.50;67.90
34137;DHT22;20414;50.860;4.382;2022-10-23T08:26:00;18.50;67.80
34137;DHT22;20414;50.860;4.382;2022-10-23T08:28:26;18.50;67.90
34137;DHT22;20414;50.860;4.382;2022-10-23T08:30:52;18.50;67.80
34137;DHT22;20414;50.860;4.382;2022-10-23T08:33:18;18.50;67.90
34137;DHT22;20414;50.860;4.382;2022-10-23T08:35:44;18.50;67.80
34137;DHT22;20414;50.860;4.382;2022-10-23T08:38:10;18.50;67.80
34137;DHT22;20414;50.860;4.382;2022-10-23T08:40:36;18.50;67.80
34137;DHT22;20414;50.860;4.382;2022-10-23T08:43:05;18.50;67.80
34137;DHT22;20414;50.860;4.382;2022-10-23T08:48:42;18.50;67.80
34137;DHT22;20414;50.860;4.382;2022-10-23T08:51:28;18.50;67.80
34137;DHT22;20414;50.860;4.382;2022-10-23T08:54:10;18.50;67.80
34137;DHT22;20414;50.860;4.382;2022-10-23T08:56:38;18.50;67.80
34137;DHT22;20414;50.860;4.382;2022-10-23T08:59:45;18.50;67.90
34137;DHT22;20414;50.860;4.382;2022-10-23T09:02:23;18.50;67.90
34137;DHT22;20414;50.860;4.382;2022-10-23T09:04:52;18.50;67.80
34137;DHT22;20414;50.860;4.382;2022-10-23T09:07:32;18.50;67.90
34137;DHT22;20414;50.860;4.382;2022-10-23T09:13:01;18.50;67.90
34137;DHT22;20414;50.860;4.382;2022-10-23T09:15:44;18.60;67.80
34137;DHT22;20414;50.860;4.382;2022-10-23T09:18:14;18.50;67.90
34137;DHT22;20414;50.860;4.382;2022-10-23T09:20:41;18.50;67.80
34137;DHT22;20414;50.860;4.382;2022-10-23T09:23:22;18.50;67.80
34137;DHT22;20414;50.860;4.382;2022-10-23T09:25:49;18.50;67.80
34137;DHT22;20414;50.860;4.382;2022-10-23T09:28:42;18.50;67.80
34137;DHT22;20414;50.860;4.382;2022-10-23T09:31:10;18.50;67.70
34137;DHT22;20414;50.860;4.382;2022-10-23T09:33:36;18.50;67.70
34137;DHT22;20414;50.860;4.382;2022-10-23T09:41:30;18.60;67.70
34137;DHT22;20414;50.860;4.382;2022-10-23T09:46:44;18.50;67.70
34137;DHT22;20414;50.860;4.382;2022-10-23T09:49:20;18.60;67.70
34137;DHT22;20414;50.860;4.382;2022-10-23T09:54:21;18.60;67.70
34137;DHT22;20414;50.860;4.382;2022-10-23T09:56:49;18.60;67.70
34137;DHT22;20414;50.860;4.382;2022-10-23T09:59:18;18.60;67.70
34137;DHT22;20414;50.860;4.382;2022-10-23T10:02:20;18.60;67.70
34137;DHT22;20414;50.860;4.382;2022-10-23T10:04:50;18.50;67.70
34137;DHT22;20414;50.860;4.382;2022-10-23T10:07:24;18.60;67.80
34137;DHT22;20414;50.860;4.382;2022-10-23T10:09:52;18.60;67.90
34137;DHT22;20414;50.860;4.382;2022-10-23T10:20:29;18.60;67.90
34137;DHT22;20414;50.860;4.382;2022-10-23T10:23:06;18.60;67.90
34137;DHT22;20414;50.860;4.382;2022-10-23T10:26:07;18.50;67.80
34137;DHT22;20414;50.860;4.382;2022-10-23T10:31:33;18.50;67.80
34137;DHT22;20414;50.860;4.382;2022-10-23T10:34:28;18.50;67.90
34137;DHT22;20414;50.860;4.382;2022-10-23T10:37:01;18.50;67.80
34137;DHT22;20414;50.860;4.382;2022-10-23T10:39:39;18.50;67.90
34137;DHT22;20414;50.860;4.382;2022-10-23T10:42:15;18.60;67.90
34137;DHT22;20414;50.860;4.382;2022-10-23T10:45:12;18.60;67.90
34137;DHT22;20414;50.860;4.382;2022-10-23T10:48:30;18.60;67.90
34137;DHT22;20414;50.860;4.382;2022-10-23T10:51:04;18.60;67.90
34137;DHT22;20414;50.860;4.382;2022-10-23T10:56:37;18.60;67.90
34137;DHT22;20414;50.860;4.382;2022-10-23T10:59:09;18.60;67.90
34137;DHT22;20414;50.860;4.382;2022-10-23T11:04:51;18.60;67.90
34137;DHT22;20414;50.860;4.382;2022-10-23T11:07:24;18.60;68.00
34137;DHT22;20414;50.860;4.382;2022-10-23T11:09:52;18.60;68.00
34137;DHT22;20414;50.860;4.382;2022-10-23T11:12:23;18.60;67.90
34137;DHT22;20414;50.860;4.382;2022-10-23T11:14:50;18.60;68.00
34137;DHT22;20414;50.860;4.382;2022-10-23T11:17:26;18.60;67.90
34137;DHT22;20414;50.860;4.382;2022-10-23T11:20:03;18.60;68.00
34137;DHT22;20414;50.860;4.382;2022-10-23T11:28:18;18.60;68.00
34137;DHT22;20414;50.860;4.382;2022-10-23T11:36:51;18.60;67.90
34137;DHT22;20414;50.860;4.382;2022-10-23T11:39:28;18.60;68.00
34137;DHT22;20414;50.860;4.382;2022-10-23T11:41:57;18.60;68.00
34137;DHT22;20414;50.860;4.382;2022-10-23T11:44:26;18.60;68.70
34137;DHT22;20414;50.860;4.382;2022-10-23T11:47:04;18.60;68.10
34137;DHT22;20414;50.860;4.382;2022-10-23T11:49:30;18.60;68.00
34137;DHT22;20414;50.860;4.382;2022-10-23T11:52:03;18.60;68.10
34137;DHT22;20414;50.860;4.382;2022-10-23T11:54:30;18.60;68.10
34137;DHT22;20414;50.860;4.382;2022-10-23T11:57:11;18.60;68.10
34137;DHT22;20414;50.860;4.382;2022-10-23T12:02:48;18.60;68.10
34137;DHT22;20414;50.860;4.382;2022-10-23T12:05:35;18.60;68.00
34137;DHT22;20414;50.860;4.382;2022-10-23T12:08:07;18.60;68.80
34137;DHT22;20414;50.860;4.382;2022-10-23T12:10:48;18.60;68.00
34137;DHT22;20414;50.860;4.382;2022-10-23T12:13:42;18.60;68.00
34137;DHT22;20414;50.860;4.382;2022-10-23T12:16:08;18.60;68.00
34137;DHT22;20414;50.860;4.382;2022-10-23T12:18:53;18.60;68.00
34137;DHT22;20414;50.860;4.382;2022-10-23T12:21:24;18.60;68.00
34137;DHT22;20414;50.860;4.382;2022-10-23T12:29:42;18.60;67.90
34137;DHT22;20414;50.860;4.382;2022-10-23T12:38:11;18.60;68.00
34137;DHT22;20414;50.860;4.382;2022-10-23T12:40:38;18.60;68.00
34137;DHT22;20414;50.860;4.382;2022-10-23T12:43:22;18.60;68.00
34137;DHT22;20414;50.860;4.382;2022-10-23T12:45:49;18.60;68.00
34137;DHT22;20414;50.860;4.382;2022-10-23T12:48:19;18.60;68.00
34137;DHT22;20414;50.860;4.382;2022-10-23T12:50:50;18.60;68.00
34137;DHT22;20414;50.860;4.382;2022-10-23T12:53:18;18.60;68.00
34137;DHT22;20414;50.860;4.382;2022-10-23T12:55:58;18.60;68.70
34137;DHT22;20414;50.860;4.382;2022-10-23T12:58:28;18.70;68.00
34137;DHT22;20414;50.860;4.382;2022-10-23T13:00:58;18.60;68.00
34137;DHT22;20414;50.860;4.382;2022-10-23T13:03:25;18.70;68.70
34137;DHT22;20414;50.860;4.382;2022-10-23T13:05:53;18.70;68.00
34137;DHT22;20414;50.860;4.382;2022-10-23T13:08:21;18.60;68.00
34137;DHT22;20414;50.860;4.382;2022-10-23T13:10:47;18.70;68.10
34137;DHT22;20414;50.860;4.382;2022-10-23T13:13:19;18.70;68.00
34137;DHT22;20414;50.860;4.382;2022-10-23T13:15:46;18.70;68.10
34137;DHT22;20414;50.860;4.382;2022-10-23T13:18:13;18.70;68.10
34137;DHT22;20414;50.860;4.382;2022-10-23T13:20:55;18.60;68.00
34137;DHT22;20414;50.860;4.382;2022-10-23T13:23:32;18.70;68.10
34137;DHT22;20414;50.860;4.382;2022-10-23T13:26:04;18.60;68.00
34137;DHT22;20414;50.860;4.382;2022-10-23T13:28:33;18.70;68.00
34137;DHT22;20414;50.860;4.382;2022-10-23T13:33:44;18.70;68.80
34137;DHT22;20414;50.860;4.382;2022-10-23T13:41:14;18.70;68.10
34137;DHT22;20414;50.860;4.382;2022-10-23T13:43:40;18.70;68.10
34137;DHT22;20414;50.860;4.382;2022-10-23T13:46:12;18.70;68.10
34137;DHT22;20414;50.860;4.382;2022-10-23T13:48:38;18.70;68.10
34137;DHT22;20414;50.860;4.382;2022-10-23T13:51:32;18.70;68.10
34137;DHT22;20414;50.860;4.382;2022-10-23T13:53:59;18.70;68.00
34137;DHT22;20414;50.860;4.382;2022-10-23T13:56:26;18.70;68.10
34137;DHT22;20414;50.860;4.382;2022-10-23T13:58:53;18.70;68.00
34137;DHT22;20414;50.860;4.382;2022-10-23T14:01:33;18.70;68.00
34137;DHT22;20414;50.860;4.382;2022-10-23T14:04:01;18.70;68.00
34137;DHT22;20414;50.860;4.382;2022-10-23T14:06:29;18.70;68.00
34137;DHT22;20414;50.860;4.382;2022-10-23T14:08:54;18.70;68.00
34137;DHT22;20414;50.860;4.382;2022-10-23T14:11:20;18.70;67.90
34137;DHT22;20414;50.860;4.382;2022-10-23T14:13:48;18.70;67.90
34137;DHT22;20414;50.860;4.382;2022-10-23T14:16:15;18.70;68.00
34137;DHT22;20414;50.860;4.382;2022-10-23T14:18:42;18.70;68.00
34137;DHT22;20414;50.860;4.382;2022-10-23T14:21:10;18.70;68.00
34137;DHT22;20414;50.860;4.382;2022-10-23T14:23:36;18.70;67.90
34137;DHT22;20414;50.860;4.382;2022-10-23T14:26:03;18.70;67.90
34137;DHT22;20414;50.860;4.382;2022-10-23T14:28:31;18.70;67.90
34137;DHT22;20414;50.860;4.382;2022-10-23T14:30:56;18.70;67.90
34137;DHT22;20414;50.860;4.382;2022-10-23T14:33:22;18.70;67.90
34137;DHT22;20414;50.860;4.382;2022-10-23T14:35:51;18.70;67.90
34137;DHT22;20414;50.860;4.382;2022-10-23T14:38:17;18.70;67.90
34137;DHT22;20414;50.860;4.382;2022-10-23T14:40:42;18.70;67.90
34137;DHT22;20414;50.860;4.382;2022-10-23T14:43:08;18.70;67.90
34137;DHT22;20414;50.860;4.382;2022-10-23T14:45:34;18.70;67.80
34137;DHT22;20414;50.860;4.382;2022-10-23T14:47:59;18.70;67.80
34137;DHT22;20414;50.860;4.382;2022-10-23T14:50:30;18.70;67.90
34137;DHT22;20414;50.860;4.382;2022-10-23T14:52:56;18.70;67.90
34137;DHT22;20414;50.860;4.382;2022-10-23T14:55:21;18.70;67.90
34137;DHT22;20414;50.860;4.382;2022-10-23T14:57:47;18.70;67.90
34137;DHT22;20414;50.860;4.382;2022-10-23T15:00:13;18.70;67.90
34137;DHT22;20414;50.860;4.382;2022-10-23T15:02:39;18.70;67.90
34137;DHT22;20414;50.860;4.382;2022-10-23T15:05:04;18.70;68.00
34137;DHT22;20414;50.860;4.382;2022-10-23T15:07:30;18.70;67.90
34137;DHT22;20414;50.860;4.382;2022-10-23T15:09:56;18.70;67.90
34137;DHT22;20414;50.860;4.382;2022-10-23T15:12:22;18.70;67.90
34137;DHT22;20414;50.860;4.382;2022-10-23T15:14:48;18.70;67.90
34137;DHT22;20414;50.860;4.382;2022-10-23T15:17:14;18.70;67.90
34137;DHT22;20414;50.860;4.382;2022-10-23T15:19:40;18.70;67.90
34137;DHT22;20414;50.860;4.382;2022-10-23T15:22:06;18.70;67.90
34137;DHT22;20414;50.860;4.382;2022-10-23T15:24:31;18.70;67.90
34137;DHT22;20414;50.860;4.382;2022-10-23T15:26:57;18.70;67.80
34137;DHT22;20414;50.860;4.382;2022-10-23T15:29:24;18.70;67.90
34137;DHT22;20414;50.860;4.382;2022-10-23T15:31:56;18.70;67.90
34137;DHT22;20414;50.860;4.382;2022-10-23T15:34:24;18.70;67.90
34137;DHT22;20414;50.860;4.382;2022-10-23T15:36:51;18.70;67.90
34137;DHT22;20414;50.860;4.382;2022-10-23T15:39:23;18.70;68.00
34137;DHT22;20414;50.860;4.382;2022-10-23T15:41:51;18.70;67.90
34137;DHT22;20414;50.860;4.382;2022-10-23T15:44:20;18.70;67.90
34137;DHT22;20414;50.860;4.382;2022-10-23T15:46:46;18.70;67.90
34137;DHT22;20414;50.860;4.382;2022-10-23T15:49:13;18.70;67.90
34137;DHT22;20414;50.860;4.382;2022-10-23T15:51:39;18.70;67.90
34137;DHT22;20414;50.860;4.382;2022-10-23T15:54:06;18.70;67.90
34137;DHT22;20414;50.860;4.382;2022-10-23T15:56:33;18.70;67.90
34137;DHT22;20414;50.860;4.382;2022-10-23T15:58:58;18.70;67.90
34137;DHT22;20414;50.860;4.382;2022-10-23T16:01:24;18.80;68.00
34137;DHT22;20414;50.860;4.382;2022-10-23T16:03:50;18.70;68.00
34137;DHT22;20414;50.860;4.382;2022-10-23T16:06:16;18.80;68.10
34137;DHT22;20414;50.860;4.382;2022-10-23T16:08:42;18.70;67.90
34137;DHT22;20414;50.860;4.382;2022-10-23T16:11:20;18.80;68.00
34137;DHT22;20414;50.860;4.382;2022-10-23T16:13:46;18.70;68.00
34137;DHT22;20414;50.860;4.382;2022-10-23T16:16:13;18.70;68.00
34137;DHT22;20414;50.860;4.382;2022-10-23T16:18:39;18.70;68.10
34137;DHT22;20414;50.860;4.382;2022-10-23T16:21:06;18.70;68.00
34137;DHT22;20414;50.860;4.382;2022-10-23T16:23:31;18.70;68.00
34137;DHT22;20414;50.860;4.382;2022-10-23T16:26:04;18.70;68.00
34137;DHT22;20414;50.860;4.382;2022-10-23T16:28:30;18.70;68.00
34137;DHT22;20414;50.860;4.382;2022-10-23T16:30:56;18.70;68.00
34137;DHT22;20414;50.860;4.382;2022-10-23T16:33:22;18.70;68.00
34137;DHT22;20414;50.860;4.382;2022-10-23T16:35:47;18.70;68.00
34137;DHT22;20414;50.860;4.382;2022-10-23T16:38:13;18.70;68.10
34137;DHT22;20414;50.860;4.382;2022-10-23T16:40:39;18.80;68.10
34137;DHT22;20414;50.860;4.382;2022-10-23T16:43:04;18.80;68.10
34137;DHT22;20414;50.860;4.382;2022-10-23T16:45:30;18.80;68.10
34137;DHT22;20414;50.860;4.382;2022-10-23T16:47:56;18.80;68.80
34137;DHT22;20414;50.860;4.382;2022-10-23T16:50:21;18.70;68.00
34137;DHT22;20414;50.860;4.382;2022-10-23T16:52:47;18.80;68.10
34137;DHT22;20414;50.860;4.382;2022-10-23T16:55:13;18.80;68.10
34137;DHT22;20414;50.860;4.382;2022-10-23T16:57:39;18.80;68.10
34137;DHT22;20414;50.860;4.382;2022-10-23T17:00:06;18.80;68.10
34137;DHT22;20414;50.860;4.382;2022-10-23T17:02:32;18.70;68.00
34137;DHT22;20414;50.860;4.382;2022-10-23T17:04:57;18.80;68.10
34137;DHT22;20414;50.860;4.382;2022-10-23T17:07:23;18.70;68.00
34137;DHT22;20414;50.860;4.382;2022-10-23T17:09:49;18.80;68.10
34137;DHT22;20414;50.860;4.382;2022-10-23T17:12:15;18.80;68.10
34137;DHT22;20414;50.860;4.382;2022-10-23T17:14:41;18.80;68.10
34137;DHT22;20414;50.860;4.382;2022-10-23T17:17:07;18.80;68.00
34137;DHT22;20414;50.860;4.382;2022-10-23T17:19:34;18.80;68.00
34137;DHT22;20414;50.860;4.382;2022-10-23T17:22:02;18.80;68.00
34137;DHT22;20414;50.860;4.382;2022-10-23T17:24:27;18.80;68.00
34137;DHT22;20414;50.860;4.382;2022-10-23T17:26:53;18.80;68.10